Millville, Pennsylvania
Current Conditions -  °F | °C
As of 1:54 PM on Friday 21 Nov 2014 (Local Time) from KIPT Reporting Station
Few Clouds Few Clouds  
Wind Chill: 28°   Ceiling: Unl
Heat Index: 36°   Visibility: 10mi
Dew Point:   Wind: 12mph
Humidity: 31%   Direction: 270°W
Pressure: 30.37"   Gusts: NA
Location:  41.12°N, 76.53°W
Report Text: KIPT 211854Z 27010KT 10SM FEW060 02/M13 A3037 RMK AO2 SLP289 T00221133
Loading
Personal Weather Stations






























Interactive Weather Map New forecast layout! Learn more

10-Day Weather Forecast

Advertisements
Track Severe Weather on mobile